Woodside, NY (11377)

1:54 AM EST on February 11, 2016 (GMT -0500)
Woodside | | Change Station
CLOSE
Current Station
Personal Weather Station
Location: Queens, NY
Elevation: 115 ft
Nearby Weather Stations

Elev 115 ft 40.75 °N, 73.91 °W | Updated 8 minutes ago

Light Snow
Light Snow
28.9 °F
Feels Like 25 °F
N
4.0
Wind Variable Wind from SE
Gusts 7.0 mph

Today
High -- | Low -- °F
--% Chance of Precip.
Yesterday
High -- | Low -- °F
Precip. -- in
Pressure 29.76 in
Visibility 4.0 miles
Clouds Scattered Clouds 2600 ft
Overcast 4000 ft
Windchill 25 °F
Dew Point 20 °F
Humidity 70%
Rainfall 0.00 in
Snow Depth Not available.
6:55 AM 5:25 PM
Waxing Crescent, 10% visible
METAR KLGA 110651Z 27016G22KT 4SM -SN SCT026 OVC040 M02/M07 A2976 RMK AO2 SNB31 SLP076 P0000 T10171072 $
Pressure 29.76 in
Visibility 4.0 miles
Clouds Scattered Clouds 2600 ft
Overcast 4000 ft
Windchill 25 °F
Dew Point 20 °F
Humidity 70%
Rainfall 0.00 in
Snow Depth Not available.
6:55 AM 5:25 PM
Waxing Crescent, 10% visible
METAR KLGA 110651Z 27016G22KT 4SM -SN SCT026 OVC040 M02/M07 A2976 RMK AO2 SNB31 SLP076 P0000 T10171072 $

10-Day Weather Forecast

Almanac

Astronomy

Feb. 11, 2016 Rise Set
Actual Time
Civil Twilight
Nautical Twilight
Astronomical Twilight
Moon
Length of Visible Light
Length of Day
Tomorrow will be .
, % of the Moon is Illuminated

Today's Extremes

State Highs State Lows

Community

WunderPhotos

Upload Photos

1,892,028 photos uploaded!

WunderBlog® & News

Nearby

Air Quality

  Air Quality AQ Index Pollutant
Not available.

Snow Depth

Station Depth Elevation

Earthquake Activity

City Distance Mag. Time & Date
Minimum magnitude displayed is 2.5.

Coastal Water Temperatures

Place Temperature

Stations

Nearby Weather Stations

Station Location Temp. Windchill Dew Point Humidity Wind Precip. Elev Updated Type
                   

Watches & Warnings

There are currently no watches in effect.